sensor_id;sensor_type;location;lat;lon;timestamp;pressure;altitude;pressure_sealevel;temperature;humidity
53526;BME280;40551;50.478;19.378;2023-02-18T00:01:16;97496.18;;;7.82;95.27
53526;BME280;40551;50.478;19.378;2023-02-18T00:03:50;97489.38;;;7.83;95.26
53526;BME280;40551;50.478;19.378;2023-02-18T00:06:23;97490.57;;;7.83;95.40
53526;BME280;40551;50.478;19.378;2023-02-18T00:08:56;97496.52;;;7.84;95.46
53526;BME280;40551;50.478;19.378;2023-02-18T00:11:32;97507.06;;;7.86;95.54
53526;BME280;40551;50.478;19.378;2023-02-18T00:14:07;97506.03;;;7.88;95.56
53526;BME280;40551;50.478;19.378;2023-02-18T00:16:41;97515.15;;;7.91;95.62
53526;BME280;40551;50.478;19.378;2023-02-18T00:19:15;97529.61;;;7.91;95.55
53526;BME280;40551;50.478;19.378;2023-02-18T00:21:47;97535.38;;;7.92;95.74
53526;BME280;40551;50.478;19.378;2023-02-18T00:24:19;97539.11;;;7.93;95.66
53526;BME280;40551;50.478;19.378;2023-02-18T00:26:52;97556.89;;;7.93;95.48
53526;BME280;40551;50.478;19.378;2023-02-18T00:29:24;97554.02;;;7.92;95.43
53526;BME280;40551;50.478;19.378;2023-02-18T00:31:55;97549.60;;;7.91;95.41
53526;BME280;40551;50.478;19.378;2023-02-18T00:34:27;97539.94;;;7.89;95.21
53526;BME280;40551;50.478;19.378;2023-02-18T00:36:59;97551.55;;;7.87;94.93
53526;BME280;40551;50.478;19.378;2023-02-18T00:39:31;97552.62;;;7.82;94.50
53526;BME280;40551;50.478;19.378;2023-02-18T00:42:02;97554.10;;;7.79;94.33
53526;BME280;40551;50.478;19.378;2023-02-18T00:47:06;97554.41;;;7.70;93.75
53526;BME280;40551;50.478;19.378;2023-02-18T00:49:37;97560.09;;;7.65;93.45
53526;BME280;40551;50.478;19.378;2023-02-18T00:52:09;97566.91;;;7.59;93.12
53526;BME280;40551;50.478;19.378;2023-02-18T00:54:43;97559.48;;;7.52;93.12
53526;BME280;40551;50.478;19.378;2023-02-18T00:57:15;97560.92;;;7.47;92.88
53526;BME280;40551;50.478;19.378;2023-02-18T00:59:47;97562.33;;;7.43;92.65
53526;BME280;40551;50.478;19.378;2023-02-18T01:02:19;97566.89;;;7.38;92.50
53526;BME280;40551;50.478;19.378;2023-02-18T01:04:51;97572.14;;;7.32;92.15
53526;BME280;40551;50.478;19.378;2023-02-18T01:07:22;97564.00;;;7.26;91.94
53526;BME280;40551;50.478;19.378;2023-02-18T01:09:54;97569.77;;;7.19;91.40
53526;BME280;40551;50.478;19.378;2023-02-18T01:12:26;97564.15;;;7.11;91.11
53526;BME280;40551;50.478;19.378;2023-02-18T01:14:58;97571.14;;;7.04;90.85
53526;BME280;40551;50.478;19.378;2023-02-18T01:17:29;97575.20;;;6.96;90.32
53526;BME280;40551;50.478;19.378;2023-02-18T01:20:01;97567.96;;;6.89;89.88
53526;BME280;40551;50.478;19.378;2023-02-18T01:22:34;97572.39;;;6.83;89.29
53526;BME280;40551;50.478;19.378;2023-02-18T01:25:10;97583.11;;;6.76;89.04
53526;BME280;40551;50.478;19.378;2023-02-18T01:27:43;97577.11;;;6.69;88.52
53526;BME280;40551;50.478;19.378;2023-02-18T01:30:16;97580.83;;;6.63;88.50
53526;BME280;40551;50.478;19.378;2023-02-18T01:32:49;97578.23;;;6.56;88.49
53526;BME280;40551;50.478;19.378;2023-02-18T01:35:20;97575.30;;;6.50;88.36
53526;BME280;40551;50.478;19.378;2023-02-18T01:37:53;97581.61;;;6.43;88.09
53526;BME280;40551;50.478;19.378;2023-02-18T01:40:27;97574.49;;;6.37;87.75
53526;BME280;40551;50.478;19.378;2023-02-18T01:42:59;97567.73;;;6.31;87.21
53526;BME280;40551;50.478;19.378;2023-02-18T01:45:49;97573.98;;;6.26;86.87
53526;BME280;40551;50.478;19.378;2023-02-18T01:48:24;97577.38;;;6.19;86.57
53526;BME280;40551;50.478;19.378;2023-02-18T01:51:03;97587.42;;;6.16;86.42
53526;BME280;40551;50.478;19.378;2023-02-18T01:53:39;97592.41;;;6.14;86.70
53526;BME280;40551;50.478;19.378;2023-02-18T01:56:22;97595.88;;;6.11;86.54
53526;BME280;40551;50.478;19.378;2023-02-18T01:59:03;97591.01;;;6.08;86.54
53526;BME280;40551;50.478;19.378;2023-02-18T02:01:37;97597.08;;;6.02;86.82
53526;BME280;40551;50.478;19.378;2023-02-18T02:04:22;97596.34;;;5.98;86.88
53526;BME280;40551;50.478;19.378;2023-02-18T02:06:54;97593.67;;;5.95;86.97
53526;BME280;40551;50.478;19.378;2023-02-18T02:09:28;97601.33;;;5.91;86.71
53526;BME280;40551;50.478;19.378;2023-02-18T02:12:16;97605.25;;;5.89;86.61
53526;BME280;40551;50.478;19.378;2023-02-18T02:15:12;97603.11;;;5.85;86.56
53526;BME280;40551;50.478;19.378;2023-02-18T02:17:56;97600.83;;;5.81;86.16
53526;BME280;40551;50.478;19.378;2023-02-18T02:20:53;97606.38;;;5.78;86.08
53526;BME280;40551;50.478;19.378;2023-02-18T02:23:37;97603.49;;;5.75;86.07
53526;BME280;40551;50.478;19.378;2023-02-18T02:26:36;97613.75;;;5.74;85.91
53526;BME280;40551;50.478;19.378;2023-02-18T02:29:35;97610.81;;;5.71;85.93
53526;BME280;40551;50.478;19.378;2023-02-18T02:32:41;97609.52;;;5.68;85.07
53526;BME280;40551;50.478;19.378;2023-02-18T02:35:18;97620.39;;;5.65;84.55
53526;BME280;40551;50.478;19.378;2023-02-18T02:37:58;97625.64;;;5.64;84.36
53526;BME280;40551;50.478;19.378;2023-02-18T02:40:37;97627.20;;;5.62;83.82
53526;BME280;40551;50.478;19.378;2023-02-18T02:43:20;97631.31;;;5.57;83.64
53526;BME280;40551;50.478;19.378;2023-02-18T02:45:56;97631.04;;;5.53;83.63
53526;BME280;40551;50.478;19.378;2023-02-18T02:48:35;97631.63;;;5.45;83.54
53526;BME280;40551;50.478;19.378;2023-02-18T02:51:12;97638.37;;;5.45;83.20
53526;BME280;40551;50.478;19.378;2023-02-18T02:53:45;97631.59;;;5.43;82.91
53526;BME280;40551;50.478;19.378;2023-02-18T02:56:19;97641.63;;;5.42;82.89
53526;BME280;40551;50.478;19.378;2023-02-18T02:58:56;97647.94;;;5.41;82.77
53526;BME280;40551;50.478;19.378;2023-02-18T03:01:40;97647.10;;;5.38;82.40
53526;BME280;40551;50.478;19.378;2023-02-18T03:04:25;97652.57;;;5.33;82.14
53526;BME280;40551;50.478;19.378;2023-02-18T03:07:37;97656.80;;;5.32;81.93
53526;BME280;40551;50.478;19.378;2023-02-18T03:10:31;97654.14;;;5.28;81.48
53526;BME280;40551;50.478;19.378;2023-02-18T03:13:12;97659.29;;;5.26;81.41
53526;BME280;40551;50.478;19.378;2023-02-18T03:15:52;97661.91;;;5.23;80.73
53526;BME280;40551;50.478;19.378;2023-02-18T03:18:31;97659.84;;;5.21;80.46
53526;BME280;40551;50.478;19.378;2023-02-18T03:21:10;97660.99;;;5.19;79.98
53526;BME280;40551;50.478;19.378;2023-02-18T03:23:48;97668.52;;;5.17;80.01
53526;BME280;40551;50.478;19.378;2023-02-18T03:26:21;97668.36;;;5.14;79.84
53526;BME280;40551;50.478;19.378;2023-02-18T03:28:57;97668.83;;;5.12;79.81
53526;BME280;40551;50.478;19.378;2023-02-18T03:31:32;97669.46;;;5.10;79.77
53526;BME280;40551;50.478;19.378;2023-02-18T03:34:08;97674.16;;;5.07;80.06
53526;BME280;40551;50.478;19.378;2023-02-18T03:36:42;97671.48;;;5.03;79.62
53526;BME280;40551;50.478;19.378;2023-02-18T03:39:17;97675.86;;;5.03;79.77
53526;BME280;40551;50.478;19.378;2023-02-18T03:41:50;97686.08;;;5.01;79.65
53526;BME280;40551;50.478;19.378;2023-02-18T03:44:22;97687.76;;;4.99;79.65
53526;BME280;40551;50.478;19.378;2023-02-18T03:46:54;97686.65;;;4.95;79.50
53526;BME280;40551;50.478;19.378;2023-02-18T03:49:26;97688.53;;;4.93;79.53
53526;BME280;40551;50.478;19.378;2023-02-18T03:51:56;97693.91;;;4.92;79.10
53526;BME280;40551;50.478;19.378;2023-02-18T03:54:28;97699.08;;;4.87;79.30
53526;BME280;40551;50.478;19.378;2023-02-18T03:57:00;97695.08;;;4.85;79.00
53526;BME280;40551;50.478;19.378;2023-02-18T03:59:30;97695.25;;;4.83;78.35
53526;BME280;40551;50.478;19.378;2023-02-18T04:02:02;97697.59;;;4.78;78.09
53526;BME280;40551;50.478;19.378;2023-02-18T04:04:34;97699.95;;;4.79;78.01
53526;BME280;40551;50.478;19.378;2023-02-18T04:07:05;97701.83;;;4.79;77.80
53526;BME280;40551;50.478;19.378;2023-02-18T04:09:36;97699.98;;;4.79;77.44
53526;BME280;40551;50.478;19.378;2023-02-18T04:12:07;97700.69;;;4.73;77.18
53526;BME280;40551;50.478;19.378;2023-02-18T04:14:39;97702.80;;;4.73;77.03
53526;BME280;40551;50.478;19.378;2023-02-18T04:17:11;97704.24;;;4.72;76.63
53526;BME280;40551;50.478;19.378;2023-02-18T04:19:41;97704.77;;;4.72;75.91
53526;BME280;40551;50.478;19.378;2023-02-18T04:22:13;97700.07;;;4.67;75.74
53526;BME280;40551;50.478;19.378;2023-02-18T04:24:45;97701.84;;;4.66;75.44
53526;BME280;40551;50.478;19.378;2023-02-18T04:27:16;97695.45;;;4.64;75.38
53526;BME280;40551;50.478;19.378;2023-02-18T04:29:48;97703.61;;;4.63;75.13
53526;BME280;40551;50.478;19.378;2023-02-18T04:32:18;97708.58;;;4.60;74.97
53526;BME280;40551;50.478;19.378;2023-02-18T04:34:50;97707.73;;;4.55;74.83
53526;BME280;40551;50.478;19.378;2023-02-18T04:37:22;97706.55;;;4.55;75.01
53526;BME280;40551;50.478;19.378;2023-02-18T04:39:52;97708.91;;;4.53;74.90
53526;BME280;40551;50.478;19.378;2023-02-18T04:42:23;97706.44;;;4.46;74.86
53526;BME280;40551;50.478;19.378;2023-02-18T04:44:55;97707.06;;;4.44;74.57
53526;BME280;40551;50.478;19.378;2023-02-18T04:47:27;97707.21;;;4.42;74.62
53526;BME280;40551;50.478;19.378;2023-02-18T04:49:59;97716.96;;;4.40;74.29
53526;BME280;40551;50.478;19.378;2023-02-18T04:52:29;97712.00;;;4.37;74.45
53526;BME280;40551;50.478;19.378;2023-02-18T04:55:00;97710.68;;;4.31;74.37
53526;BME280;40551;50.478;19.378;2023-02-18T04:57:32;97706.63;;;4.30;74.35
53526;BME280;40551;50.478;19.378;2023-02-18T05:00:06;97713.90;;;4.29;74.01
53526;BME280;40551;50.478;19.378;2023-02-18T05:02:39;97719.50;;;4.28;73.85
53526;BME280;40551;50.478;19.378;2023-02-18T05:05:09;97715.80;;;4.26;73.65
53526;BME280;40551;50.478;19.378;2023-02-18T05:07:41;97712.95;;;4.22;73.67
53526;BME280;40551;50.478;19.378;2023-02-18T05:10:15;97706.92;;;4.23;73.50
53526;BME280;40551;50.478;19.378;2023-02-18T05:12:47;97711.52;;;4.21;73.44
53526;BME280;40551;50.478;19.378;2023-02-18T05:15:17;97708.83;;;4.20;73.27
53526;BME280;40551;50.478;19.378;2023-02-18T05:17:49;97706.61;;;4.14;72.95
53526;BME280;40551;50.478;19.378;2023-02-18T05:20:21;97714.16;;;4.12;72.84
53526;BME280;40551;50.478;19.378;2023-02-18T05:22:53;97710.58;;;4.11;72.79
53526;BME280;40551;50.478;19.378;2023-02-18T05:25:24;97710.19;;;4.09;72.56
53526;BME280;40551;50.478;19.378;2023-02-18T05:27:55;97706.16;;;4.08;72.19
53526;BME280;40551;50.478;19.378;2023-02-18T05:30:26;97712.23;;;4.04;72.14
53526;BME280;40551;50.478;19.378;2023-02-18T05:32:58;97714.09;;;4.05;71.71
53526;BME280;40551;50.478;19.378;2023-02-18T05:35:30;97714.94;;;4.05;71.45
53526;BME280;40551;50.478;19.378;2023-02-18T05:38:02;97713.38;;;4.05;71.73
53526;BME280;40551;50.478;19.378;2023-02-18T05:40:32;97713.29;;;4.04;71.26
53526;BME280;40551;50.478;19.378;2023-02-18T05:43:04;97712.33;;;4.00;71.02
53526;BME280;40551;50.478;19.378;2023-02-18T05:45:36;97711.51;;;3.99;71.19
53526;BME280;40551;50.478;19.378;2023-02-18T05:48:07;97713.20;;;3.99;70.79
53526;BME280;40551;50.478;19.378;2023-02-18T05:50:39;97710.70;;;3.98;70.75
53526;BME280;40551;50.478;19.378;2023-02-18T05:53:11;97710.89;;;3.98;70.18
53526;BME280;40551;50.478;19.378;2023-02-18T05:55:44;97705.63;;;4.00;70.11
53526;BME280;40551;50.478;19.378;2023-02-18T05:58:15;97713.21;;;3.99;69.98
53526;BME280;40551;50.478;19.378;2023-02-18T06:00:46;97715.71;;;3.98;69.69
53526;BME280;40551;50.478;19.378;2023-02-18T06:03:19;97721.11;;;4.02;69.39
53526;BME280;40551;50.478;19.378;2023-02-18T06:05:51;97719.39;;;4.05;69.25
53526;BME280;40551;50.478;19.378;2023-02-18T06:08:23;97723.15;;;4.08;68.93
53526;BME280;40551;50.478;19.378;2023-02-18T06:10:54;97727.00;;;4.12;68.38
53526;BME280;40551;50.478;19.378;2023-02-18T06:13:25;97726.23;;;4.18;68.28
53526;BME280;40551;50.478;19.378;2023-02-18T06:15:57;97726.56;;;4.21;68.01
53526;BME280;40551;50.478;19.378;2023-02-18T06:18:28;97728.34;;;4.29;68.00
53526;BME280;40551;50.478;19.378;2023-02-18T06:20:58;97740.45;;;4.35;68.08
53526;BME280;40551;50.478;19.378;2023-02-18T06:23:30;97743.88;;;4.38;67.88
53526;BME280;40551;50.478;19.378;2023-02-18T06:26:00;97745.96;;;4.48;67.85
53526;BME280;40551;50.478;19.378;2023-02-18T06:28:32;97745.42;;;4.54;67.82
53526;BME280;40551;50.478;19.378;2023-02-18T06:31:04;97740.23;;;4.64;67.99
53526;BME280;40551;50.478;19.378;2023-02-18T06:33:36;97743.00;;;4.78;67.44
53526;BME280;40551;50.478;19.378;2023-02-18T06:36:07;97742.90;;;4.84;66.81
53526;BME280;40551;50.478;19.378;2023-02-18T06:38:42;97745.89;;;4.83;66.90
53526;BME280;40551;50.478;19.378;2023-02-18T06:41:15;97744.28;;;4.86;66.08
53526;BME280;40551;50.478;19.378;2023-02-18T06:43:47;97744.30;;;4.89;65.95
53526;BME280;40551;50.478;19.378;2023-02-18T06:46:18;97746.96;;;4.93;65.69
53526;BME280;40551;50.478;19.378;2023-02-18T06:48:50;97750.48;;;4.97;66.19
53526;BME280;40551;50.478;19.378;2023-02-18T06:51:20;97748.36;;;5.13;66.40
53526;BME280;40551;50.478;19.378;2023-02-18T06:53:52;97754.63;;;5.30;65.33
53526;BME280;40551;50.478;19.378;2023-02-18T06:56:24;97758.61;;;5.42;65.61
53526;BME280;40551;50.478;19.378;2023-02-18T06:58:54;97760.39;;;5.54;65.13
53526;BME280;40551;50.478;19.378;2023-02-18T07:01:26;97759.47;;;5.57;65.01
53526;BME280;40551;50.478;19.378;2023-02-18T07:03:57;97759.41;;;5.68;64.50
53526;BME280;40551;50.478;19.378;2023-02-18T07:06:29;97763.41;;;5.77;63.96
53526;BME280;40551;50.478;19.378;2023-02-18T07:09:01;97764.60;;;5.87;64.10
53526;BME280;40551;50.478;19.378;2023-02-18T07:11:33;97765.38;;;5.93;63.63
53526;BME280;40551;50.478;19.378;2023-02-18T07:14:05;97757.73;;;5.95;62.76
53526;BME280;40551;50.478;19.378;2023-02-18T07:16:37;97761.60;;;5.93;63.01
53526;BME280;40551;50.478;19.378;2023-02-18T07:19:09;97765.94;;;5.90;62.51
53526;BME280;40551;50.478;19.378;2023-02-18T07:21:44;97757.70;;;5.85;61.87
53526;BME280;40551;50.478;19.378;2023-02-18T07:24:16;97756.76;;;5.81;62.22
53526;BME280;40551;50.478;19.378;2023-02-18T07:26:47;97755.55;;;5.78;62.32
53526;BME280;40551;50.478;19.378;2023-02-18T07:29:19;97749.35;;;5.76;61.36
53526;BME280;40551;50.478;19.378;2023-02-18T07:31:51;97754.93;;;5.75;61.86
53526;BME280;40551;50.478;19.378;2023-02-18T07:34:23;97756.02;;;5.74;61.58
53526;BME280;40551;50.478;19.378;2023-02-18T07:36:55;97749.55;;;5.73;61.17
53526;BME280;40551;50.478;19.378;2023-02-18T07:39:25;97752.17;;;5.73;61.04
53526;BME280;40551;50.478;19.378;2023-02-18T07:41:57;97749.02;;;5.69;61.13
53526;BME280;40551;50.478;19.378;2023-02-18T07:44:29;97749.80;;;5.72;61.42
53526;BME280;40551;50.478;19.378;2023-02-18T07:47:01;97747.91;;;5.77;61.18
53526;BME280;40551;50.478;19.378;2023-02-18T07:49:33;97750.33;;;5.82;61.12
53526;BME280;40551;50.478;19.378;2023-02-18T07:52:05;97754.91;;;5.88;60.85
53526;BME280;40551;50.478;19.378;2023-02-18T07:54:37;97761.79;;;5.93;61.00
53526;BME280;40551;50.478;19.378;2023-02-18T07:57:07;97764.09;;;5.97;61.16
53526;BME280;40551;50.478;19.378;2023-02-18T07:59:39;97764.34;;;5.96;60.67
53526;BME280;40551;50.478;19.378;2023-02-18T08:02:16;97768.49;;;6.01;60.01
53526;BME280;40551;50.478;19.378;2023-02-18T08:04:49;97768.45;;;6.04;59.85
53526;BME280;40551;50.478;19.378;2023-02-18T08:07:21;97766.38;;;6.06;59.82
53526;BME280;40551;50.478;19.378;2023-02-18T08:09:54;97776.15;;;6.09;60.08
53526;BME280;40551;50.478;19.378;2023-02-18T08:12:25;97776.65;;;6.14;60.09
53526;BME280;40551;50.478;19.378;2023-02-18T08:14:56;97768.27;;;6.21;60.15
53526;BME280;40551;50.478;19.378;2023-02-18T08:17:27;97773.71;;;6.22;59.77
53526;BME280;40551;50.478;19.378;2023-02-18T08:19:59;97770.00;;;6.28;59.71
53526;BME280;40551;50.478;19.378;2023-02-18T08:22:31;97774.80;;;6.33;59.09
53526;BME280;40551;50.478;19.378;2023-02-18T08:25:03;97777.26;;;6.37;58.82
53526;BME280;40551;50.478;19.378;2023-02-18T08:27:35;97773.61;;;6.40;58.37
53526;BME280;40551;50.478;19.378;2023-02-18T08:30:09;97774.63;;;6.42;57.59
53526;BME280;40551;50.478;19.378;2023-02-18T08:32:42;97771.96;;;6.46;57.28
53526;BME280;40551;50.478;19.378;2023-02-18T08:35:14;97776.16;;;6.50;57.63
53526;BME280;40551;50.478;19.378;2023-02-18T08:37:46;97769.44;;;6.55;56.76
53526;BME280;40551;50.478;19.378;2023-02-18T08:40:23;97780.67;;;6.59;57.46
53526;BME280;40551;50.478;19.378;2023-02-18T08:42:55;97774.92;;;6.64;57.81
53526;BME280;40551;50.478;19.378;2023-02-18T08:45:27;97775.31;;;6.69;57.88
53526;BME280;40551;50.478;19.378;2023-02-18T08:47:58;97781.55;;;6.75;57.92
53526;BME280;40551;50.478;19.378;2023-02-18T08:50:49;97776.05;;;6.82;57.45
53526;BME280;40551;50.478;19.378;2023-02-18T08:53:22;97781.27;;;6.88;57.83
53526;BME280;40551;50.478;19.378;2023-02-18T08:55:53;97773.73;;;6.95;57.17
53526;BME280;40551;50.478;19.378;2023-02-18T08:58:24;97777.77;;;7.01;56.84
53526;BME280;40551;50.478;19.378;2023-02-18T09:00:55;97775.61;;;7.02;56.80
53526;BME280;40551;50.478;19.378;2023-02-18T09:03:31;97780.05;;;7.07;55.70
53526;BME280;40551;50.478;19.378;2023-02-18T09:06:04;97777.80;;;7.09;55.30
53526;BME280;40551;50.478;19.378;2023-02-18T09:08:36;97771.86;;;7.13;55.09
53526;BME280;40551;50.478;19.378;2023-02-18T09:11:09;97777.65;;;7.16;55.32
53526;BME280;40551;50.478;19.378;2023-02-18T09:13:41;97778.29;;;7.19;55.72
53526;BME280;40551;50.478;19.378;2023-02-18T09:16:14;97777.59;;;7.19;54.62
53526;BME280;40551;50.478;19.378;2023-02-18T09:18:48;97774.36;;;7.19;54.36
53526;BME280;40551;50.478;19.378;2023-02-18T09:21:20;97765.05;;;7.16;53.98
53526;BME280;40551;50.478;19.378;2023-02-18T09:23:53;97763.02;;;7.16;54.37
53526;BME280;40551;50.478;19.378;2023-02-18T09:26:25;97760.00;;;7.17;54.29
53526;BME280;40551;50.478;19.378;2023-02-18T09:28:57;97770.96;;;7.18;54.77
53526;BME280;40551;50.478;19.378;2023-02-18T09:31:29;97773.42;;;7.17;54.26
53526;BME280;40551;50.478;19.378;2023-02-18T09:34:02;97772.40;;;7.15;53.65
53526;BME280;40551;50.478;19.378;2023-02-18T09:36:34;97767.04;;;7.13;53.72
53526;BME280;40551;50.478;19.378;2023-02-18T09:39:05;97767.26;;;7.12;54.15
53526;BME280;40551;50.478;19.378;2023-02-18T09:41:40;97765.11;;;7.11;54.48
53526;BME280;40551;50.478;19.378;2023-02-18T09:44:15;97766.48;;;7.11;54.19
53526;BME280;40551;50.478;19.378;2023-02-18T09:46:52;97754.93;;;7.11;53.84
53526;BME280;40551;50.478;19.378;2023-02-18T09:49:26;97748.95;;;7.12;53.72
53526;BME280;40551;50.478;19.378;2023-02-18T09:52:10;97750.91;;;7.16;54.40
53526;BME280;40551;50.478;19.378;2023-02-18T09:54:43;97748.07;;;7.24;54.39
53526;BME280;40551;50.478;19.378;2023-02-18T09:57:23;97740.05;;;7.32;54.02
53526;BME280;40551;50.478;19.378;2023-02-18T09:59:56;97750.64;;;7.42;54.54
53526;BME280;40551;50.478;19.378;2023-02-18T10:02:29;97741.23;;;7.46;54.34
53526;BME280;40551;50.478;19.378;2023-02-18T10:05:04;97734.39;;;7.52;53.80
53526;BME280;40551;50.478;19.378;2023-02-18T10:07:37;97740.75;;;7.56;54.37
53526;BME280;40551;50.478;19.378;2023-02-18T10:10:18;97740.72;;;7.61;54.35
53526;BME280;40551;50.478;19.378;2023-02-18T10:12:52;97738.55;;;7.65;54.26
53526;BME280;40551;50.478;19.378;2023-02-18T10:15:28;97741.02;;;7.68;54.55
53526;BME280;40551;50.478;19.378;2023-02-18T10:18:01;97738.05;;;7.73;55.32
53526;BME280;40551;50.478;19.378;2023-02-18T10:20:33;97738.21;;;7.78;55.00
53526;BME280;40551;50.478;19.378;2023-02-18T10:23:05;97738.52;;;7.78;54.35
53526;BME280;40551;50.478;19.378;2023-02-18T10:25:41;97731.70;;;7.77;54.59
53526;BME280;40551;50.478;19.378;2023-02-18T10:28:22;97723.86;;;7.78;54.62
53526;BME280;40551;50.478;19.378;2023-02-18T10:31:01;97724.17;;;7.78;55.01
53526;BME280;40551;50.478;19.378;2023-02-18T10:33:38;97717.80;;;7.80;54.97
53526;BME280;40551;50.478;19.378;2023-02-18T10:36:25;97709.94;;;7.82;55.00
53526;BME280;40551;50.478;19.378;2023-02-18T10:39:12;97708.84;;;7.85;55.16
53526;BME280;40551;50.478;19.378;2023-02-18T10:41:52;97698.15;;;7.87;54.63
53526;BME280;40551;50.478;19.378;2023-02-18T10:44:33;97701.10;;;7.89;54.46
53526;BME280;40551;50.478;19.378;2023-02-18T10:47:18;97691.73;;;7.89;54.18
53526;BME280;40551;50.478;19.378;2023-02-18T10:49:57;97687.45;;;7.91;55.19
53526;BME280;40551;50.478;19.378;2023-02-18T10:52:32;97682.05;;;7.91;54.75
53526;BME280;40551;50.478;19.378;2023-02-18T10:55:08;97677.67;;;7.95;55.51
53526;BME280;40551;50.478;19.378;2023-02-18T10:57:49;97678.50;;;7.97;55.58
53526;BME280;40551;50.478;19.378;2023-02-18T11:00:25;97683.45;;;7.95;55.69
53526;BME280;40551;50.478;19.378;2023-02-18T11:03:14;97688.58;;;7.92;55.78
53526;BME280;40551;50.478;19.378;2023-02-18T11:05:49;97690.98;;;7.88;56.30
53526;BME280;40551;50.478;19.378;2023-02-18T11:08:23;97699.73;;;7.84;55.97
53526;BME280;40551;50.478;19.378;2023-02-18T11:10:56;97704.30;;;7.76;56.65
53526;BME280;40551;50.478;19.378;2023-02-18T11:13:29;97714.55;;;7.65;57.56
53526;BME280;40551;50.478;19.378;2023-02-18T11:16:03;97724.77;;;7.51;59.08
53526;BME280;40551;50.478;19.378;2023-02-18T11:18:39;97731.02;;;7.33;60.74
53526;BME280;40551;50.478;19.378;2023-02-18T11:21:23;97731.63;;;7.16;61.82
53526;BME280;40551;50.478;19.378;2023-02-18T11:24:07;97730.94;;;7.00;63.49
53526;BME280;40551;50.478;19.378;2023-02-18T11:26:41;97728.14;;;6.84;64.20
53526;BME280;40551;50.478;19.378;2023-02-18T11:29:20;97719.10;;;6.71;64.88
53526;BME280;40551;50.478;19.378;2023-02-18T11:31:54;97718.21;;;6.60;65.57
53526;BME280;40551;50.478;19.378;2023-02-18T11:34:30;97710.80;;;6.51;66.05
53526;BME280;40551;50.478;19.378;2023-02-18T11:37:11;97709.61;;;6.39;66.88
53526;BME280;40551;50.478;19.378;2023-02-18T11:39:49;97707.89;;;6.29;67.58
53526;BME280;40551;50.478;19.378;2023-02-18T11:42:23;97701.14;;;6.22;68.29
53526;BME280;40551;50.478;19.378;2023-02-18T11:44:57;97701.78;;;6.16;68.64
53526;BME280;40551;50.478;19.378;2023-02-18T11:47:33;97701.55;;;6.12;69.07
53526;BME280;40551;50.478;19.378;2023-02-18T11:50:21;97697.42;;;6.10;69.51
53526;BME280;40551;50.478;19.378;2023-02-18T11:52:53;97701.14;;;6.09;69.96
53526;BME280;40551;50.478;19.378;2023-02-18T11:55:28;97691.77;;;6.05;70.32
53526;BME280;40551;50.478;19.378;2023-02-18T11:58:03;97685.45;;;6.01;70.69
53526;BME280;40551;50.478;19.378;2023-02-18T12:00:40;97680.19;;;6.03;71.28
53526;BME280;40551;50.478;19.378;2023-02-18T12:03:20;97678.36;;;6.05;71.62
53526;BME280;40551;50.478;19.378;2023-02-18T12:05:52;97669.92;;;6.07;72.01
53526;BME280;40551;50.478;19.378;2023-02-18T12:08:26;97661.85;;;6.07;72.46
53526;BME280;40551;50.478;19.378;2023-02-18T12:11:03;97655.72;;;6.13;72.62
53526;BME280;40551;50.478;19.378;2023-02-18T12:13:38;97648.70;;;6.19;72.75
53526;BME280;40551;50.478;19.378;2023-02-18T12:16:17;97644.05;;;6.29;73.28
53526;BME280;40551;50.478;19.378;2023-02-18T12:19:04;97644.19;;;6.38;73.60
53526;BME280;40551;50.478;19.378;2023-02-18T12:21:49;97629.08;;;6.49;73.75
53526;BME280;40551;50.478;19.378;2023-02-18T12:24:37;97631.40;;;6.55;73.81
53526;BME280;40551;50.478;19.378;2023-02-18T12:27:18;97621.42;;;6.59;73.42
53526;BME280;40551;50.478;19.378;2023-02-18T12:30:02;97617.27;;;6.62;73.32
53526;BME280;40551;50.478;19.378;2023-02-18T12:32:45;97612.98;;;6.64;73.22
53526;BME280;40551;50.478;19.378;2023-02-18T12:35:32;97608.64;;;6.71;73.37
53526;BME280;40551;50.478;19.378;2023-02-18T12:38:45;97604.36;;;6.80;73.71
53526;BME280;40551;50.478;19.378;2023-02-18T12:41:28;97601.71;;;6.83;73.35
53526;BME280;40551;50.478;19.378;2023-02-18T12:44:12;97590.30;;;6.83;73.02
53526;BME280;40551;50.478;19.378;2023-02-18T12:46:58;97585.67;;;6.78;72.99
53526;BME280;40551;50.478;19.378;2023-02-18T12:49:45;97586.57;;;6.71;72.98
53526;BME280;40551;50.478;19.378;2023-02-18T12:52:28;97579.55;;;6.64;73.20
53526;BME280;40551;50.478;19.378;2023-02-18T12:58:34;97572.55;;;6.60;73.66
53526;BME280;40551;50.478;19.378;2023-02-18T13:01:15;97574.13;;;6.49;73.76
53526;BME280;40551;50.478;19.378;2023-02-18T13:07:09;97560.31;;;6.38;74.52
53526;BME280;40551;50.478;19.378;2023-02-18T13:09:51;97548.14;;;6.35;74.84
53526;BME280;40551;50.478;19.378;2023-02-18T13:12:26;97546.08;;;6.33;74.89
53526;BME280;40551;50.478;19.378;2023-02-18T13:15:00;97536.89;;;6.31;75.19
53526;BME280;40551;50.478;19.378;2023-02-18T13:17:34;97533.65;;;6.31;75.27
53526;BME280;40551;50.478;19.378;2023-02-18T13:20:06;97529.60;;;6.32;75.97
53526;BME280;40551;50.478;19.378;2023-02-18T13:22:40;97521.20;;;6.32;75.77
53526;BME280;40551;50.478;19.378;2023-02-18T13:25:12;97515.36;;;6.29;75.68
53526;BME280;40551;50.478;19.378;2023-02-18T13:27:44;97507.63;;;6.26;76.12
53526;BME280;40551;50.478;19.378;2023-02-18T13:30:20;97501.07;;;6.24;76.35
53526;BME280;40551;50.478;19.378;2023-02-18T13:32:59;97495.79;;;6.21;76.32
53526;BME280;40551;50.478;19.378;2023-02-18T13:35:35;97490.05;;;6.15;76.45
53526;BME280;40551;50.478;19.378;2023-02-18T13:38:20;97489.97;;;6.09;76.71
53526;BME280;40551;50.478;19.378;2023-02-18T13:40:55;97486.05;;;6.07;77.13
53526;BME280;40551;50.478;19.378;2023-02-18T13:43:30;97476.18;;;6.05;77.43
53526;BME280;40551;50.478;19.378;2023-02-18T13:46:07;97468.73;;;6.04;77.52
53526;BME280;40551;50.478;19.378;2023-02-18T13:48:41;97465.09;;;6.02;77.68
53526;BME280;40551;50.478;19.378;2023-02-18T13:51:13;97462.14;;;6.02;78.13